Time;durP1;ratioP1;P1;durP2;ratioP2;P2;SDS_P1;SDS_P2;PMS_P1;PMS_P2;Temp;Humidity;BMP_temperature;BMP_pressure;BME280_temperature;BME280_humidity;BME280_pressure;Samples;Min_cycle;Max_cycle;Signal;HPM_P1;HPM_P2
2022/06/19 00:02:21;;;;;;;6.43;2.30;;;;;;;24.44;35.48;99021.66;4501974;31;20088;-90
2022/06/19 00:04:49;;;;;;;4.25;1.73;;;;;;;24.39;35.57;99016.75;4503106;31;20103;-90
2022/06/19 00:07:15;;;;;;;4.87;1.90;;;;;;;24.38;35.58;99017.75;4501655;31;20108;-89
2022/06/19 00:09:41;;;;;;;7.35;2.08;;;;;;;24.30;35.76;99009.69;4502103;31;20151;-89
2022/06/19 00:12:07;;;;;;;5.22;1.90;;;;;;;24.29;35.72;99016.91;4503214;31;20491;-90
2022/06/19 00:14:34;;;;;;;6.72;2.22;;;;;;;24.11;36.05;99011.66;4503111;31;20092;-89
2022/06/19 00:17:00;;;;;;;6.28;2.15;;;;;;;23.98;36.29;99011.28;4501937;31;20154;-89
2022/06/19 00:19:25;;;;;;;6.90;2.22;;;;;;;23.89;36.47;99007.75;4503098;31;20135;-90
2022/06/19 00:21:51;;;;;;;6.68;2.17;;;;;;;23.75;36.94;99016.41;4501926;31;20106;-90
2022/06/19 00:24:16;;;;;;;5.87;2.10;;;;;;;23.92;36.54;98996.66;4503056;31;20084;-90
2022/06/19 00:26:42;;;;;;;5.28;2.00;;;;;;;23.86;36.64;98997.31;4502800;31;20127;-90
2022/06/19 00:29:07;;;;;;;5.47;2.08;;;;;;;23.86;36.75;99000.00;4503058;31;20092;-90
2022/06/19 00:31:33;;;;;;;5.80;2.17;;;;;;;23.88;36.90;99000.66;4501780;31;20113;-89
2022/06/19 00:33:58;;;;;;;4.80;2.05;;;;;;;23.92;37.18;98999.34;4502932;31;20113;-90
2022/06/19 00:36:26;;;;;;;6.55;1.95;;;;;;;23.91;37.49;98999.50;4502901;31;20139;-90
2022/06/19 00:38:52;;;;;;;6.55;2.20;;;;;;;23.87;37.81;98996.28;4501817;31;20160;-89
2022/06/19 00:41:18;;;;;;;5.45;2.08;;;;;;;23.97;37.86;98987.22;4502935;31;20092;-90
2022/06/19 00:44:08;;;;;;;5.18;2.10;;;;;;;23.96;37.87;98991.78;4501902;31;20417;-90
2022/06/19 00:46:45;;;;;;;5.93;2.20;;;;;;;23.98;38.05;98991.62;4503313;31;20110;-90
2022/06/19 00:49:14;;;;;;;6.10;2.20;;;;;;;23.97;38.11;98990.78;4502964;31;20080;-90
2022/06/19 00:51:39;;;;;;;7.20;2.05;;;;;;;24.00;38.04;98985.06;4501725;31;20088;-90
2022/06/19 00:54:06;;;;;;;5.87;2.05;;;;;;;24.03;38.04;98978.50;4502584;31;20317;-90
2022/06/19 00:56:32;;;;;;;5.43;2.03;;;;;;;24.04;38.03;98981.03;4501646;31;20096;-90
2022/06/19 00:58:57;;;;;;;5.22;2.05;;;;;;;24.10;37.92;98977.66;4501566;31;20099;-90
2022/06/19 01:01:25;;;;;;;8.20;2.45;;;;;;;24.14;37.86;98975.50;4502636;31;20087;-90
2022/06/19 01:03:55;;;;;;;7.90;2.05;;;;;;;24.12;37.91;98974.81;4501578;31;20080;-90
2022/06/19 01:06:21;;;;;;;5.97;1.95;;;;;;;24.13;37.95;98979.19;4501583;31;20799;-90
2022/06/19 01:08:47;;;;;;;5.68;2.10;;;;;;;24.10;38.06;98980.34;4501479;31;20088;-90
2022/06/19 01:11:14;;;;;;;6.12;2.10;;;;;;;24.08;38.07;98974.31;4502654;31;20147;-88
2022/06/19 01:13:39;;;;;;;6.70;2.10;;;;;;;24.10;38.04;98974.97;4501359;31;20110;-86
2022/06/19 01:16:05;;;;;;;6.45;2.15;;;;;;;24.07;38.09;98978.00;4502700;31;20485;-87
2022/06/19 01:18:33;;;;;;;5.82;2.00;;;;;;;24.08;37.97;98974.31;4500394;31;20100;-87
2022/06/19 01:21:22;;;;;;;5.53;2.05;;;;;;;23.97;38.24;98966.56;4494078;31;20499;-87
2022/06/19 01:24:06;;;;;;;6.25;2.00;;;;;;;24.01;38.24;98969.75;4500875;31;20080;-83
2022/06/19 01:26:36;;;;;;;8.02;2.33;;;;;;;24.04;38.20;98966.72;4495644;31;20475;-83
2022/06/19 01:29:02;;;;;;;4.62;1.98;;;;;;;24.06;38.17;98962.03;4493074;31;20116;-85
2022/06/19 01:31:34;;;;;;;5.50;2.05;;;;;;;23.92;38.18;98971.59;4495553;31;20111;-85
2022/06/19 01:34:27;;;;;;;5.72;2.20;;;;;;;23.84;38.06;98974.28;4499794;31;20419;-87
2022/06/19 01:36:54;;;;;;;6.05;2.55;;;;;;;23.82;38.02;98969.03;4501257;31;20107;-88
2022/06/19 01:39:21;;;;;;;5.43;1.98;;;;;;;23.83;38.05;98968.03;4486463;31;20085;-88
2022/06/19 01:41:47;;;;;;;6.80;2.00;;;;;;;23.84;38.03;98968.88;4486500;31;20118;-88
2022/06/19 01:44:12;;;;;;;5.93;2.40;;;;;;;23.61;38.48;98964.06;4485262;32;20097;-87
2022/06/19 01:46:37;;;;;;;5.35;2.28;;;;;;;23.61;38.42;98958.69;4485164;32;20392;-88
2022/06/19 01:49:03;;;;;;;4.85;2.20;;;;;;;23.69;38.33;98965.94;4485120;32;20096;-88
2022/06/19 01:51:28;;;;;;;8.35;2.12;;;;;;;23.69;38.39;98964.09;4486340;32;20084;-88
2022/06/19 01:53:59;;;;;;;4.95;2.10;;;;;;;23.75;38.39;98962.59;4485046;32;20172;-88
2022/06/19 01:56:24;;;;;;;6.37;2.10;;;;;;;23.74;38.49;98963.63;4485111;32;20130;-88
2022/06/19 01:58:52;;;;;;;7.40;2.00;;;;;;;23.79;38.44;98971.22;4486316;31;20088;-87
2022/06/19 02:01:17;;;;;;;6.00;2.50;;;;;;;23.68;38.64;98969.63;4484954;32;20096;-86
2022/06/19 02:03:49;;;;;;;5.35;2.00;;;;;;;23.61;38.73;98961.38;4484996;32;20101;-86
2022/06/19 02:06:18;;;;;;;5.82;2.08;;;;;;;23.69;38.74;98960.56;4486307;31;20092;-86
2022/06/19 02:08:44;;;;;;;7.12;2.30;;;;;;;23.71;38.85;98948.63;4486174;32;20106;-86
2022/06/19 02:11:11;;;;;;;9.52;2.30;;;;;;;23.71;38.97;98955.88;4484929;32;20088;-87
2022/06/19 02:13:38;;;;;;;6.57;2.33;;;;;;;23.75;39.03;98951.84;4485894;31;20110;-84
2022/06/19 02:16:06;;;;;;;6.30;2.12;;;;;;;23.70;39.14;98944.28;4486288;31;20116;-86
2022/06/19 02:18:35;;;;;;;5.20;2.05;;;;;;;23.67;39.23;98947.28;4471789;32;20165;-85
2022/06/19 02:21:02;;;;;;;8.35;2.17;;;;;;;23.67;39.36;98947.28;4486187;31;20204;-85
2022/06/19 02:23:33;;;;;;;6.93;2.40;;;;;;;23.65;39.38;98941.22;4471859;32;20561;-86
2022/06/19 02:26:00;;;;;;;6.85;2.50;;;;;;;23.66;39.55;98942.06;4485936;31;20092;-84
2022/06/19 02:28:26;;;;;;;5.20;2.03;;;;;;;23.61;39.64;98939.88;4485009;32;20092;-86
2022/06/19 02:30:52;;;;;;;4.95;2.12;;;;;;;23.57;39.74;98941.22;4487116;32;20084;-85
2022/06/19 02:33:21;;;;;;;8.20;2.50;;;;;;;23.55;39.79;98949.44;4487059;32;20107;-85
2022/06/19 02:35:47;;;;;;;5.40;2.40;;;;;;;23.54;39.85;98952.28;4488098;31;20160;-86
2022/06/19 02:38:17;;;;;;;6.78;2.12;;;;;;;23.53;39.79;98948.75;4488246;31;20085;-86
2022/06/19 02:41:10;;;;;;;5.62;2.17;;;;;;;23.55;39.73;98948.59;4488516;31;20102;-85
2022/06/19 02:43:35;;;;;;;6.43;2.40;;;;;;;23.55;39.74;98946.75;4486737;32;20083;-85
2022/06/19 02:46:05;;;;;;;4.80;2.00;;;;;;;23.49;39.85;98942.03;4487789;31;20436;-85
2022/06/19 02:48:32;;;;;;;7.45;2.25;;;;;;;23.50;39.89;98950.91;4486859;32;20194;-85
2022/06/19 02:50:59;;;;;;;7.22;2.25;;;;;;;23.51;39.95;98942.69;4487982;31;20538;-85
2022/06/19 02:53:25;;;;;;;7.85;2.50;;;;;;;23.51;39.99;98940.00;4487759;31;20103;-85
2022/06/19 02:55:51;;;;;;;7.12;2.42;;;;;;;23.51;39.92;98936.50;4486629;32;20398;-86
2022/06/19 02:58:19;;;;;;;7.87;2.28;;;;;;;23.50;39.93;98927.56;4487803;31;20084;-86
2022/06/19 03:00:45;;;;;;;6.32;2.25;;;;;;;23.54;39.88;98934.28;4487837;32;20148;-86
2022/06/19 03:03:29;;;;;;;7.43;2.58;;;;;;;23.57;39.80;98929.62;4487809;31;20072;-86
2022/06/19 03:05:54;;;;;;;6.37;2.60;;;;;;;23.64;39.68;98931.50;4486785;32;20151;-86
2022/06/19 03:08:20;;;;;;;4.85;2.22;;;;;;;23.66;39.81;98934.00;4487784;31;20092;-87
2022/06/19 03:10:45;;;;;;;7.20;2.30;;;;;;;23.68;39.92;98932.84;4486786;32;20445;-88
2022/06/19 03:13:10;;;;;;;6.47;2.33;;;;;;;23.71;39.79;98932.50;4486482;32;20103;-88
2022/06/19 03:15:36;;;;;;;5.80;2.25;;;;;;;23.74;39.81;98928.66;4487699;31;20137;-88
2022/06/19 03:18:02;;;;;;;6.07;2.22;;;;;;;23.78;39.83;98923.75;4487778;31;20161;-88
2022/06/19 03:20:28;;;;;;;5.97;2.08;;;;;;;23.84;39.60;98931.22;4486556;32;20096;-88
2022/06/19 03:22:54;;;;;;;4.60;2.12;;;;;;;23.90;39.37;98930.56;4487676;31;20423;-88
2022/06/19 03:25:20;;;;;;;6.37;2.25;;;;;;;23.83;39.29;98922.28;4487601;31;20169;-88
2022/06/19 03:27:47;;;;;;;4.93;2.10;;;;;;;23.94;39.20;98907.69;4486385;32;20096;-87
2022/06/19 03:30:14;;;;;;;5.30;2.10;;;;;;;24.00;39.28;98911.56;4473285;32;20103;-88
2022/06/19 03:32:39;;;;;;;8.23;2.40;;;;;;;24.03;39.41;98903.13;4488087;31;20492;-87
2022/06/19 03:35:05;;;;;;;5.45;2.30;;;;;;;24.16;39.25;98905.34;4487646;32;20112;-88
2022/06/19 03:37:30;;;;;;;6.10;2.30;;;;;;;24.25;39.33;98915.09;4487911;31;20092;-88
2022/06/19 03:39:56;;;;;;;4.70;1.87;;;;;;;24.31;39.61;98912.56;4487542;31;20080;-87
2022/06/19 03:42:21;;;;;;;9.75;2.35;;;;;;;24.39;39.47;98917.13;4487399;32;20096;-87
2022/06/19 03:44:47;;;;;;;4.93;2.20;;;;;;;24.51;39.83;98906.88;4487824;31;20435;-87
2022/06/19 03:47:19;;;;;;;6.43;2.30;;;;;;;24.56;40.15;98914.44;4487707;32;20367;-87
2022/06/19 03:49:45;;;;;;;5.93;2.40;;;;;;;24.65;40.17;98918.81;4487518;32;20139;-87
2022/06/19 03:52:10;;;;;;;6.43;2.20;;;;;;;24.65;40.09;98914.25;4487407;31;20132;-87
2022/06/19 03:54:36;;;;;;;6.10;2.10;;;;;;;24.78;39.58;98913.72;4487337;32;20131;-87
2022/06/19 03:57:01;;;;;;;6.20;2.20;;;;;;;24.92;39.36;98913.03;4487446;32;20386;-87
2022/06/19 03:59:26;;;;;;;5.07;1.98;;;;;;;25.00;39.30;98914.84;4487284;32;20076;-87
2022/06/19 04:01:52;;;;;;;6.30;2.22;;;;;;;25.12;39.45;98918.00;4487410;32;20457;-88
2022/06/19 04:04:18;;;;;;;5.80;2.50;;;;;;;25.23;40.06;98919.53;4487473;31;20096;-87
2022/06/19 04:06:43;;;;;;;7.20;2.67;;;;;;;25.30;40.48;98915.09;4487387;31;20084;-87
2022/06/19 04:09:13;;;;;;;6.80;2.58;;;;;;;25.35;40.32;98904.63;4487337;32;20089;-86
2022/06/19 04:11:38;;;;;;;6.25;2.35;;;;;;;25.46;39.95;98908.81;4487279;31;20088;-87
2022/06/19 04:14:04;;;;;;;7.60;2.35;;;;;;;25.55;39.30;98910.44;4487135;32;20116;-86
2022/06/19 04:16:31;;;;;;;6.47;2.60;;;;;;;25.70;38.63;98903.25;4487331;31;20084;-87
2022/06/19 04:18:57;;;;;;;;;;;;;;;25.85;38.38;98908.72;4487628;31;20136;-87
2022/06/19 04:21:25;;;;;;;5.10;2.20;;;;;;;26.11;37.92;98895.94;4487383;31;19976;-87
2022/06/19 04:23:54;;;;;;;7.15;2.47;;;;;;;26.14;38.74;98901.81;4487265;31;20135;-87
2022/06/19 04:26:19;;;;;;;9.23;2.60;;;;;;;26.28;38.81;98909.09;4487121;31;20088;-87
2022/06/19 04:28:45;;;;;;;7.53;2.20;;;;;;;26.39;38.53;98898.91;4487240;31;20064;-87
2022/06/19 04:31:10;;;;;;;4.87;2.12;;;;;;;26.54;38.09;98899.78;4487290;31;20129;-87
2022/06/19 04:33:41;;;;;;;5.85;2.50;;;;;;;26.60;37.65;98896.37;4486001;32;20130;-87
2022/06/19 04:36:10;;;;;;;7.70;2.83;;;;;;;26.71;37.30;98894.22;4487223;31;20139;-86
2022/06/19 04:38:37;;;;;;;6.53;2.10;;;;;;;26.87;37.04;98897.59;4472798;32;20492;-86
2022/06/19 04:41:02;;;;;;;5.53;2.10;;;;;;;26.96;36.60;98903.75;4487241;31;20160;-86
2022/06/19 04:43:28;;;;;;;5.28;2.20;;;;;;;27.07;36.35;98905.16;4487140;31;20116;-86
2022/06/19 04:46:01;;;;;;;6.97;2.30;;;;;;;27.18;36.09;98904.69;4487066;31;20088;-87
2022/06/19 04:48:27;;;;;;;6.97;2.70;;;;;;;27.44;35.43;98904.19;4486160;32;20518;-86
2022/06/19 04:50:53;;;;;;;7.15;2.83;;;;;;;27.54;35.15;98908.47;4487305;32;20084;-86
2022/06/19 04:53:19;;;;;;;8.85;2.40;;;;;;;27.63;35.13;98904.63;4486109;31;20478;-86
2022/06/19 04:55:44;;;;;;;7.53;2.58;;;;;;;27.72;34.93;98908.03;4487019;32;20120;-85
2022/06/19 04:58:09;;;;;;;5.95;2.40;;;;;;;27.77;34.73;98913.72;4486940;32;20111;-86
2022/06/19 05:00:35;;;;;;;6.97;2.50;;;;;;;27.79;34.51;98920.63;4486824;32;20116;-86
2022/06/19 05:03:00;;;;;;;6.12;2.60;;;;;;;28.00;34.23;98916.28;4486892;31;20111;-86
2022/06/19 05:05:26;;;;;;;6.32;2.40;;;;;;;27.98;34.32;98924.59;4486857;31;20435;-87
2022/06/19 05:07:51;;;;;;;7.55;2.80;;;;;;;28.06;34.45;98917.41;4486888;31;20110;-87
2022/06/19 05:10:17;;;;;;;8.18;3.00;;;;;;;28.13;34.29;98921.84;4485681;32;20483;-87
2022/06/19 05:12:42;;;;;;;7.07;2.50;;;;;;;28.18;34.19;98924.81;4486800;31;20119;-86
2022/06/19 05:15:09;;;;;;;5.80;2.55;;;;;;;28.25;34.11;98924.88;4486780;31;20088;-87
2022/06/19 05:17:35;;;;;;;6.75;2.78;;;;;;;28.30;34.22;98922.41;4486765;31;20092;-89
2022/06/19 05:20:02;;;;;;;6.72;2.60;;;;;;;28.44;33.89;98926.06;4486826;31;20134;-88
2022/06/19 05:22:28;;;;;;;14.73;3.30;;;;;;;28.50;33.93;98930.72;4485582;32;20100;-87
2022/06/19 05:24:53;;;;;;;8.07;2.70;;;;;;;28.62;33.95;98929.16;4486976;32;20148;-88
2022/06/19 05:27:19;;;;;;;6.97;2.90;;;;;;;28.82;33.67;98937.47;4486697;32;20112;-87
2022/06/19 05:29:44;;;;;;;7.53;2.75;;;;;;;28.81;33.57;98930.34;4486724;32;20120;-87
2022/06/19 05:32:09;;;;;;;6.72;2.70;;;;;;;28.82;33.35;98931.22;4486828;32;20091;-88
2022/06/19 05:34:36;;;;;;;7.85;2.80;;;;;;;28.77;33.13;98929.06;4486802;31;20076;-88
2022/06/19 05:37:03;;;;;;;8.85;3.00;;;;;;;28.84;33.07;98934.56;4486891;31;20163;-88
2022/06/19 05:39:30;;;;;;;16.23;3.47;;;;;;;28.83;33.03;98941.81;4486829;31;20084;-88
2022/06/19 05:41:58;;;;;;;8.23;3.10;;;;;;;28.93;33.03;98935.22;4472496;32;20154;-88
2022/06/19 05:44:25;;;;;;;7.57;3.00;;;;;;;28.92;33.09;98931.69;4486356;31;20140;-88
2022/06/19 05:46:51;;;;;;;9.48;3.33;;;;;;;29.02;32.86;98931.31;4485267;32;20092;-88
2022/06/19 05:49:16;;;;;;;9.50;3.17;;;;;;;29.19;32.75;98938.12;4486333;31;20117;-88
2022/06/19 05:51:42;;;;;;;7.90;3.17;;;;;;;29.29;32.26;98942.34;4486240;31;20428;-89
2022/06/19 05:54:08;;;;;;;10.07;3.60;;;;;;;29.23;32.50;98938.56;4486257;31;20521;-89
2022/06/19 05:56:34;;;;;;;10.30;3.20;;;;;;;29.20;32.30;98942.50;4486161;31;20088;-89
2022/06/19 05:59:00;;;;;;;9.60;3.50;;;;;;;29.26;32.56;98940.87;4484967;32;20370;-88
2022/06/19 06:01:28;;;;;;;7.87;3.20;;;;;;;29.30;32.53;98942.13;4486143;31;20125;-89
2022/06/19 06:03:54;;;;;;;8.50;3.22;;;;;;;29.48;31.98;98941.63;4485556;32;20126;-89
2022/06/19 06:06:23;;;;;;;10.75;3.40;;;;;;;29.48;32.15;98938.06;4488231;31;20088;-90
2022/06/19 06:08:48;;;;;;;8.70;3.20;;;;;;;29.42;32.63;98939.72;4488205;31;20430;-89
2022/06/19 06:11:14;;;;;;;9.68;3.53;;;;;;;29.67;32.45;98931.88;4488142;31;20088;-88
2022/06/19 06:13:40;;;;;;;8.55;3.53;;;;;;;29.67;32.18;98931.88;4488250;31;20156;-88
2022/06/19 06:16:06;;;;;;;9.65;3.40;;;;;;;29.65;32.43;98935.81;4488058;32;20155;-89
2022/06/19 06:18:32;;;;;;;10.77;3.62;;;;;;;29.85;32.60;98928.59;4488124;31;20690;-88
2022/06/19 06:21:05;;;;;;;9.98;4.00;;;;;;;29.89;32.15;98937.19;4488139;31;20093;-89
2022/06/19 06:23:31;;;;;;;11.07;3.60;;;;;;;30.08;31.49;98935.56;4488113;31;20092;-90
2022/06/19 06:26:04;;;;;;;9.35;3.42;;;;;;;30.02;31.96;98939.94;4486901;32;20114;-89
2022/06/19 06:28:31;;;;;;;7.95;3.42;;;;;;;30.04;31.70;98937.00;4488109;31;20100;-88
2022/06/19 06:30:56;;;;;;;10.90;4.00;;;;;;;30.16;31.75;98944.34;4488077;31;20096;-88
2022/06/19 06:33:22;;;;;;;11.15;4.35;;;;;;;30.20;31.12;98942.03;4487971;32;20151;-88
2022/06/19 06:35:47;;;;;;;11.00;4.00;;;;;;;30.23;30.98;98940.78;4487896;31;20089;-89
2022/06/19 06:38:13;;;;;;;9.65;3.75;;;;;;;30.23;31.37;98938.06;4486742;32;20356;-90
2022/06/19 06:40:38;;;;;;;12.23;3.60;;;;;;;30.26;31.74;98943.09;4486856;32;20108;-88
2022/06/19 06:43:04;;;;;;;6.75;2.83;;;;;;;30.23;31.42;98940.78;4487940;31;20118;-89
2022/06/19 06:45:29;;;;;;;8.05;3.22;;;;;;;30.25;30.98;98941.41;4487992;32;20389;-88
2022/06/19 06:47:55;;;;;;;9.30;3.22;;;;;;;30.38;30.74;98947.75;4486788;32;20435;-88
2022/06/19 06:50:20;;;;;;;8.48;2.90;;;;;;;30.52;30.54;98942.28;4487992;31;20088;-89
2022/06/19 06:52:46;;;;;;;8.35;2.15;;;;;;;30.65;30.24;98941.47;4487785;32;20080;-89
2022/06/19 06:55:12;;;;;;;6.40;1.90;;;;;;;30.74;29.01;98949.19;4487906;32;20080;-88
2022/06/19 06:57:38;;;;;;;6.45;2.12;;;;;;;30.84;27.86;98939.78;4487819;31;20453;-88
2022/06/19 07:00:05;;;;;;;7.07;2.30;;;;;;;30.86;26.76;98940.41;4486669;32;20119;-88
2022/06/19 07:02:31;;;;;;;5.90;2.20;;;;;;;31.07;26.25;98948.34;4487886;31;20092;-89
2022/06/19 07:04:56;;;;;;;5.90;2.00;;;;;;;31.04;26.84;98946.06;4486554;32;20150;-89
2022/06/19 07:07:22;;;;;;;5.22;1.90;;;;;;;31.23;27.04;98949.75;4487865;31;20132;-87
2022/06/19 07:09:47;;;;;;;7.40;2.08;;;;;;;31.33;26.22;98952.03;4487679;32;20092;-87
2022/06/19 07:12:12;;;;;;;6.30;2.08;;;;;;;31.39;26.39;98945.75;4486617;32;20104;-87
2022/06/19 07:14:38;;;;;;;4.90;2.00;;;;;;;31.33;26.00;98943.88;4486417;32;20084;-89
2022/06/19 07:17:04;;;;;;;6.93;2.30;;;;;;;31.24;26.34;98940.56;4487094;31;20076;-89
2022/06/19 07:19:30;;;;;;;11.35;2.70;;;;;;;31.23;26.47;98932.59;4486622;32;20112;-89
2022/06/19 07:21:55;;;;;;;6.00;2.20;;;;;;;31.31;26.51;98943.25;4487669;31;20140;-89
2022/06/19 07:24:20;;;;;;;7.45;2.45;;;;;;;31.49;26.32;98948.87;4486331;32;20110;-89
2022/06/19 07:26:46;;;;;;;9.90;2.53;;;;;;;31.45;26.40;98946.78;4487405;31;20085;-89
2022/06/19 07:29:11;;;;;;;6.97;2.40;;;;;;;31.63;25.62;98946.09;4487550;32;20144;-90
2022/06/19 07:31:37;;;;;;;8.55;2.30;;;;;;;31.58;25.65;98946.72;4487607;32;20130;-90
2022/06/19 07:34:04;;;;;;;5.20;2.22;;;;;;;31.49;25.73;98943.44;4487423;32;20132;-90
2022/06/19 07:36:29;;;;;;;7.70;2.33;;;;;;;31.57;25.84;98950.53;4487602;31;20094;-88
2022/06/19 07:38:55;;;;;;;6.20;2.10;;;;;;;31.43;25.39;98946.12;4486415;32;20109;-89
2022/06/19 07:41:20;;;;;;;6.68;2.37;;;;;;;31.56;24.85;98943.41;4487548;31;20347;-88
2022/06/19 07:43:46;;;;;;;5.22;2.00;;;;;;;31.54;25.28;98942.78;4487491;31;20101;-89
2022/06/19 07:46:12;;;;;;;5.57;2.25;;;;;;;31.69;24.87;98935.16;4487522;31;20084;-88
2022/06/19 07:51:25;;;;;;;7.87;2.35;;;;;;;31.57;24.73;98942.34;4487572;32;20122;-89
2022/06/19 07:53:50;;;;;;;5.72;2.53;;;;;;;31.71;24.77;98934.97;4487267;32;20107;-87
2022/06/19 07:56:16;;;;;;;5.55;2.20;;;;;;;31.65;24.75;98935.84;4487486;31;20128;-90
2022/06/19 07:58:41;;;;;;;6.00;2.22;;;;;;;31.77;24.83;98934.09;4487464;32;20088;-85
2022/06/19 08:01:07;;;;;;;7.95;2.30;;;;;;;31.78;24.70;98933.03;4487427;31;20193;-86
2022/06/19 08:03:32;;;;;;;8.30;2.58;;;;;;;31.67;25.16;98928.28;4487314;32;20100;-86
2022/06/19 08:05:58;;;;;;;7.75;2.50;;;;;;;31.71;25.25;98929.50;4487651;31;20129;-87
2022/06/19 08:08:25;;;;;;;6.45;2.35;;;;;;;31.72;25.75;98925.75;4487511;32;20351;-85
2022/06/19 08:10:53;;;;;;;14.10;2.58;;;;;;;31.85;24.59;98920.22;4486494;32;20107;-86
2022/06/19 08:13:20;;;;;;;9.68;2.37;;;;;;;31.67;25.13;98912.75;4487591;31;20439;-89
2022/06/19 08:15:59;;;;;;;8.48;2.30;;;;;;;31.78;24.63;98908.53;4487469;31;20077;-88
2022/06/19 08:18:26;;;;;;;6.00;2.17;;;;;;;31.74;24.38;98910.03;4487336;31;20158;-88
2022/06/19 08:20:52;;;;;;;4.87;1.95;;;;;;;31.77;25.14;98908.75;4487373;31;20462;-87
2022/06/19 08:23:19;;;;;;;6.20;2.60;;;;;;;31.81;24.29;98908.06;4486138;32;20471;-86
2022/06/19 08:25:45;;;;;;;6.43;2.50;;;;;;;31.88;24.74;98900.69;4487349;31;20131;-86
2022/06/19 08:28:11;;;;;;;7.55;2.70;;;;;;;31.62;25.53;98900.84;4485799;32;20123;-84
2022/06/19 08:30:43;;;;;;;12.55;3.20;;;;;;;31.75;25.05;98907.06;4487183;31;20136;-86
2022/06/19 08:33:09;;;;;;;9.70;3.20;;;;;;;31.79;23.88;98909.34;4485401;31;20126;-88
2022/06/19 08:35:39;;;;;;;10.80;3.43;;;;;;;31.84;24.15;98898.66;4493718;31;20076;-88
2022/06/19 08:38:13;;;;;;;8.02;2.83;;;;;;;31.65;24.42;98897.69;4490321;31;21732;-87
2022/06/19 08:40:48;;;;;;;10.18;3.10;;;;;;;31.67;23.78;98911.94;4490756;31;20154;-86
2022/06/19 08:43:35;;;;;;;8.25;3.50;;;;;;;31.72;23.94;98903.97;4491648;31;20106;-86
2022/06/19 08:46:32;;;;;;;7.80;3.15;;;;;;;31.71;24.65;98897.66;4492303;31;20499;-86
2022/06/19 08:49:39;;;;;;;10.52;3.70;;;;;;;31.61;24.96;98904.63;4435899;32;20121;-86
2022/06/19 08:52:04;;;;;;;8.50;3.80;;;;;;;31.58;24.96;98905.06;4389891;32;20090;-86
2022/06/19 08:54:54;;;;;;;8.25;3.47;;;;;;;31.71;24.46;98905.81;4390067;32;20163;-86
2022/06/19 08:57:48;;;;;;;35.63;7.20;;;;;;;31.79;23.98;98903.91;4389972;32;20829;-86
2022/06/19 09:00:22;;;;;;;9.32;3.55;;;;;;;31.78;23.82;98899.53;4376641;32;20154;-90
2022/06/19 09:03:08;;;;;;;12.85;3.25;;;;;;;31.77;24.02;98909.56;4390339;32;20118;-89
2022/06/19 09:05:55;;;;;;;24.45;4.35;;;;;;;31.84;22.84;98902.19;4377866;32;20082;-88
2022/06/19 09:08:45;;;;;;;10.02;3.72;;;;;;;31.81;23.04;98902.63;4386318;32;20106;-88
2022/06/19 09:11:19;;;;;;;9.05;3.37;;;;;;;31.78;22.88;98903.06;4384153;32;20150;-88
2022/06/19 09:14:03;;;;;;;12.23;4.00;;;;;;;31.78;23.36;98903.06;4389933;32;20102;-88
2022/06/19 09:16:34;;;;;;;8.70;3.80;;;;;;;31.75;23.62;98901.59;4389782;32;20116;-87
2022/06/19 09:19:10;;;;;;;9.15;3.67;;;;;;;31.66;24.20;98893.91;4390184;32;20115;-88
2022/06/19 09:21:55;;;;;;;8.95;3.28;;;;;;;31.84;23.94;98890.47;4389271;32;20170;-87
2022/06/19 09:24:49;;;;;;;12.15;3.87;;;;;;;31.84;23.17;98893.19;4392835;32;20755;-88
2022/06/19 09:27:16;;;;;;;11.38;3.97;;;;;;;31.81;23.40;98885.44;4465331;31;20100;-88
2022/06/19 09:29:51;;;;;;;11.73;3.70;;;;;;;31.80;23.79;98873.72;4494113;31;20582;-91
2022/06/19 09:32:51;;;;;;;8.98;3.17;;;;;;;31.81;24.03;98877.28;4491746;31;20120;-94
2022/06/19 09:35:23;;;;;;;9.05;2.83;;;;;;;31.83;23.66;98877.88;4492145;31;20149;-90
2022/06/19 09:37:55;;;;;;;15.35;3.33;;;;;;;31.85;23.86;98868.47;4491568;31;20114;-89
2022/06/19 09:40:26;;;;;;;18.12;4.07;;;;;;;31.71;23.92;98872.31;4489534;31;20099;-91
2022/06/19 09:43:06;;;;;;;7.43;2.80;;;;;;;31.82;24.54;98868.06;4490870;31;20104;-92
2022/06/19 09:45:43;;;;;;;8.82;3.17;;;;;;;31.82;24.54;98878.97;4489615;31;20104;-91
2022/06/19 09:48:30;;;;;;;8.23;3.17;;;;;;;31.81;24.30;98878.09;4483664;31;20458;-90
2022/06/19 09:51:12;;;;;;;9.27;2.95;;;;;;;31.82;24.17;98865.34;4496475;31;20123;-92
2022/06/19 09:53:44;;;;;;;11.02;3.55;;;;;;;31.69;24.23;98871.69;4498623;31;20101;-90
2022/06/19 09:56:17;;;;;;;10.75;3.80;;;;;;;31.70;24.40;98866.03;4498602;31;20083;-91
2022/06/19 09:58:50;;;;;;;9.45;4.05;;;;;;;31.69;24.40;98860.81;4482083;31;20118;-87
2022/06/19 10:01:15;;;;;;;12.82;5.62;;;;;;;31.66;23.97;98853.91;4477832;32;20534;-88
2022/06/19 10:03:50;;;;;;;15.15;5.45;;;;;;;31.62;24.62;98849.97;4483081;31;20096;-92
2022/06/19 10:06:21;;;;;;;11.12;5.20;;;;;;;31.66;24.36;98859.38;4483829;31;20092;-92
2022/06/19 10:08:53;;;;;;;11.65;5.22;;;;;;;31.70;24.45;98851.59;4492099;31;20800;-92
2022/06/19 10:11:30;;;;;;;10.73;4.45;;;;;;;31.63;24.32;98856.25;4493060;31;20159;-89
2022/06/19 10:14:10;;;;;;;13.93;6.10;;;;;;;31.50;24.14;98843.53;4491393;31;20127;-88
2022/06/19 10:17:03;;;;;;;10.98;5.47;;;;;;;31.49;24.66;98856.31;4491005;31;20096;-89
2022/06/19 10:19:46;;;;;;;12.45;5.70;;;;;;;31.48;24.27;98854.62;4487897;31;20092;-84
2022/06/19 10:22:30;;;;;;;12.32;4.60;;;;;;;31.40;25.07;98838.53;4497963;31;20427;-92
2022/06/19 10:24:56;;;;;;;11.60;4.82;;;;;;;31.52;24.70;98836.81;4500730;31;20087;-91
2022/06/19 10:27:37;;;;;;;11.32;4.70;;;;;;;31.42;24.39;98827.41;4501168;31;20088;-89
2022/06/19 10:30:14;;;;;;;9.30;3.87;;;;;;;31.39;24.60;98841.44;4499920;31;20118;-90
2022/06/19 10:33:00;;;;;;;12.73;4.45;;;;;;;31.50;24.02;98829.91;4499872;31;20124;-90
2022/06/19 10:35:35;;;;;;;17.30;4.85;;;;;;;31.40;24.37;98827.63;4501553;31;20726;-90
2022/06/19 10:38:37;;;;;;;10.05;4.32;;;;;;;31.45;24.54;98825.09;4500449;31;20139;-91
2022/06/19 10:44:45;;;;;;;8.88;3.30;;;;;;;31.64;23.04;98820.63;4501623;31;20526;-90
2022/06/19 10:47:19;;;;;;;13.52;3.90;;;;;;;31.54;23.29;98822.97;4501428;31;20476;-88
2022/06/19 10:49:48;;;;;;;10.82;3.47;;;;;;;31.56;23.19;98815.41;4500213;31;20375;-91
2022/06/19 10:52:34;;;;;;;8.95;3.03;;;;;;;31.46;23.47;98807.72;4503273;31;20352;-90
2022/06/19 10:55:38;;;;;;;8.20;3.05;;;;;;;31.54;23.80;98802.03;4502413;31;20106;-90
2022/06/19 10:58:22;;;;;;;9.95;3.10;;;;;;;31.43;23.67;98802.69;4502427;31;20549;-91
2022/06/19 11:00:53;;;;;;;7.87;3.03;;;;;;;31.38;24.30;98805.22;4502538;31;20096;-90
2022/06/19 11:06:15;;;;;;;8.25;2.95;;;;;;;31.44;23.09;98803.53;4502667;31;20141;-91
2022/06/19 11:08:45;;;;;;;7.60;2.70;;;;;;;31.46;23.38;98796.00;4502500;31;20096;-90
2022/06/19 11:11:16;;;;;;;9.60;2.92;;;;;;;31.57;23.60;98791.75;4502372;31;20091;-91
2022/06/19 11:14:08;;;;;;;14.77;2.92;;;;;;;31.64;23.16;98790.66;4502461;31;20080;-90
2022/06/19 11:16:56;;;;;;;9.40;2.85;;;;;;;31.49;23.48;98790.97;4489253;31;20092;-90
2022/06/19 11:19:31;;;;;;;10.50;3.30;;;;;;;31.37;23.06;98787.25;4502313;31;20096;-89
2022/06/19 11:21:56;;;;;;;10.40;2.97;;;;;;;31.49;23.17;98796.41;4503503;31;20096;-90
2022/06/19 11:24:28;;;;;;;9.48;2.25;;;;;;;31.44;23.42;98796.19;4503506;31;20106;-89
2022/06/19 11:26:55;;;;;;;7.10;2.37;;;;;;;31.57;22.82;98781.69;4502172;31;20115;-89
2022/06/19 11:29:21;;;;;;;11.20;2.20;;;;;;;31.62;22.59;98778.31;4503435;31;20116;-90
2022/06/19 11:32:05;;;;;;;8.32;2.87;;;;;;;31.64;22.66;98778.91;4502193;31;20442;-90
2022/06/19 11:34:43;;;;;;;5.53;2.20;;;;;;;31.65;23.22;98769.69;4503385;31;20147;-89
2022/06/19 11:37:18;;;;;;;7.75;2.50;;;;;;;31.62;22.22;98768.25;4503426;31;20072;-91
2022/06/19 11:39:50;;;;;;;6.75;2.30;;;;;;;31.54;22.48;98766.66;4503518;31;20681;-90
2022/06/19 11:42:18;;;;;;;7.18;2.28;;;;;;;31.67;22.63;98765.69;4503477;31;20092;-90
2022/06/19 11:44:54;;;;;;;7.15;2.28;;;;;;;31.64;23.14;98760.72;4503346;31;20083;-90
2022/06/19 11:47:29;;;;;;;4.75;2.00;;;;;;;31.51;23.25;98761.63;4503257;31;20344;-90
2022/06/19 11:50:33;;;;;;;6.65;2.40;;;;;;;31.67;22.17;98753.97;4502058;31;20123;-89
2022/06/19 11:53:21;;;;;;;5.20;1.70;;;;;;;31.71;22.61;98758.75;4438548;32;20153;-90
2022/06/19 11:56:20;;;;;;;12.55;2.75;;;;;;;31.80;22.61;98761.22;4425958;32;20085;-90